Aviation Digital Data Service (ADDS)

Output produced by METARs form (1014 UTC 05 September 2015)
found at http://aviationweather.gov/adds/metars/
 
KCAR 050949Z 0510/0606 VRB03KT 1SM BR BKN002 
     FM051300 26007KT P6SM SKC 
     FM060000 VRB03KT P6SM SKC